sensor_id;sensor_type;location;lat;lon;timestamp;temperature;humidity
18392;DHT22;9322;50.932;5.318;2023-03-01T00:02:00;0.90;1.40
18392;DHT22;9322;50.932;5.318;2023-03-01T00:04:26;0.90;1.40
18392;DHT22;9322;50.932;5.318;2023-03-01T00:06:53;0.80;1.40
18392;DHT22;9322;50.932;5.318;2023-03-01T00:09:18;0.80;1.40
18392;DHT22;9322;50.932;5.318;2023-03-01T00:11:44;0.80;1.40
18392;DHT22;9322;50.932;5.318;2023-03-01T00:14:11;0.70;1.40
18392;DHT22;9322;50.932;5.318;2023-03-01T00:16:39;0.80;1.40
18392;DHT22;9322;50.932;5.318;2023-03-01T00:19:09;0.80;1.40
18392;DHT22;9322;50.932;5.318;2023-03-01T00:21:36;0.70;1.40
18392;DHT22;9322;50.932;5.318;2023-03-01T00:24:02;0.60;1.40
18392;DHT22;9322;50.932;5.318;2023-03-01T00:26:28;0.50;1.40
18392;DHT22;9322;50.932;5.318;2023-03-01T00:28:54;0.30;1.40
18392;DHT22;9322;50.932;5.318;2023-03-01T00:31:26;0.20;1.40
18392;DHT22;9322;50.932;5.318;2023-03-01T00:33:53;0.20;1.40
18392;DHT22;9322;50.932;5.318;2023-03-01T00:36:24;0.20;1.40
18392;DHT22;9322;50.932;5.318;2023-03-01T00:38:51;0.10;1.40
18392;DHT22;9322;50.932;5.318;2023-03-01T00:41:19;0.20;1.40
18392;DHT22;9322;50.932;5.318;2023-03-01T00:43:45;0.30;1.40
18392;DHT22;9322;50.932;5.318;2023-03-01T00:46:13;0.40;1.40
18392;DHT22;9322;50.932;5.318;2023-03-01T00:48:39;0.10;1.40
18392;DHT22;9322;50.932;5.318;2023-03-01T00:51:16;0.10;1.40
18392;DHT22;9322;50.932;5.318;2023-03-01T00:53:42;0.20;1.40
18392;DHT22;9322;50.932;5.318;2023-03-01T00:56:10;0.10;1.40
18392;DHT22;9322;50.932;5.318;2023-03-01T00:58:37;0.10;1.40
18392;DHT22;9322;50.932;5.318;2023-03-01T01:01:23;0.10;1.40
18392;DHT22;9322;50.932;5.318;2023-03-01T01:03:52;0.10;1.40
18392;DHT22;9322;50.932;5.318;2023-03-01T01:06:39;0.20;1.40
18392;DHT22;9322;50.932;5.318;2023-03-01T01:09:06;0.30;1.40
18392;DHT22;9322;50.932;5.318;2023-03-01T01:11:33;0.10;1.40
18392;DHT22;9322;50.932;5.318;2023-03-01T01:13:59;0.00;1.40
18392;DHT22;9322;50.932;5.318;2023-03-01T01:16:26;0.10;1.40
18392;DHT22;9322;50.932;5.318;2023-03-01T01:18:53;0.10;1.40
18392;DHT22;9322;50.932;5.318;2023-03-01T01:21:20;0.00;1.40
18392;DHT22;9322;50.932;5.318;2023-03-01T01:23:47;-0.10;1.40
18392;DHT22;9322;50.932;5.318;2023-03-01T01:26:19;-0.20;1.40
18392;DHT22;9322;50.932;5.318;2023-03-01T01:28:46;-0.40;1.40
18392;DHT22;9322;50.932;5.318;2023-03-01T01:31:12;-0.40;1.40
18392;DHT22;9322;50.932;5.318;2023-03-01T01:33:37;-0.40;1.40
18392;DHT22;9322;50.932;5.318;2023-03-01T01:36:05;-0.20;1.40
18392;DHT22;9322;50.932;5.318;2023-03-01T01:38:30;-0.20;1.40
18392;DHT22;9322;50.932;5.318;2023-03-01T01:40:56;-0.20;1.40
18392;DHT22;9322;50.932;5.318;2023-03-01T01:43:28;-0.20;1.40
18392;DHT22;9322;50.932;5.318;2023-03-01T01:46:01;-0.30;1.40
18392;DHT22;9322;50.932;5.318;2023-03-01T01:48:49;-0.30;1.40
18392;DHT22;9322;50.932;5.318;2023-03-01T01:51:20;-0.50;1.40
18392;DHT22;9322;50.932;5.318;2023-03-01T01:53:55;-0.50;1.40
18392;DHT22;9322;50.932;5.318;2023-03-01T01:56:24;-0.40;1.40
18392;DHT22;9322;50.932;5.318;2023-03-01T01:58:51;-0.50;1.40
18392;DHT22;9322;50.932;5.318;2023-03-01T02:01:17;-0.50;1.40
18392;DHT22;9322;50.932;5.318;2023-03-01T02:03:43;-0.60;1.40
18392;DHT22;9322;50.932;5.318;2023-03-01T02:08:37;-0.70;1.40
18392;DHT22;9322;50.932;5.318;2023-03-01T02:11:05;-0.70;1.40
18392;DHT22;9322;50.932;5.318;2023-03-01T02:13:32;-0.80;99.90
18392;DHT22;9322;50.932;5.318;2023-03-01T02:15:59;-0.90;99.40
18392;DHT22;9322;50.932;5.318;2023-03-01T02:18:26;-0.90;99.20
18392;DHT22;9322;50.932;5.318;2023-03-01T02:23:33;-1.10;99.90
18392;DHT22;9322;50.932;5.318;2023-03-01T02:28:34;-1.20;99.90
18392;DHT22;9322;50.932;5.318;2023-03-01T02:31:02;-1.30;99.90
18392;DHT22;9322;50.932;5.318;2023-03-01T02:33:47;-1.40;99.90
18392;DHT22;9322;50.932;5.318;2023-03-01T02:36:26;-1.40;99.90
18392;DHT22;9322;50.932;5.318;2023-03-01T02:38:58;-1.40;99.90
18392;DHT22;9322;50.932;5.318;2023-03-01T02:41:27;-1.40;99.90
18392;DHT22;9322;50.932;5.318;2023-03-01T02:43:54;-1.30;99.90
18392;DHT22;9322;50.932;5.318;2023-03-01T02:46:23;-1.30;99.90
18392;DHT22;9322;50.932;5.318;2023-03-01T02:48:57;-1.10;99.90
18392;DHT22;9322;50.932;5.318;2023-03-01T02:54:16;-1.10;99.90
18392;DHT22;9322;50.932;5.318;2023-03-01T02:56:44;-1.00;99.90
18392;DHT22;9322;50.932;5.318;2023-03-01T02:59:13;-1.00;99.90
18392;DHT22;9322;50.932;5.318;2023-03-01T03:01:39;-1.10;99.90
18392;DHT22;9322;50.932;5.318;2023-03-01T03:04:13;-1.10;99.90
18392;DHT22;9322;50.932;5.318;2023-03-01T03:06:45;-1.10;99.90
18392;DHT22;9322;50.932;5.318;2023-03-01T03:09:12;-1.00;99.90
18392;DHT22;9322;50.932;5.318;2023-03-01T03:11:38;-1.10;99.90
18392;DHT22;9322;50.932;5.318;2023-03-01T03:14:13;-0.90;99.90
18392;DHT22;9322;50.932;5.318;2023-03-01T03:16:50;-1.00;99.90
18392;DHT22;9322;50.932;5.318;2023-03-01T03:19:17;-1.00;99.90
18392;DHT22;9322;50.932;5.318;2023-03-01T03:21:43;-1.10;99.90
18392;DHT22;9322;50.932;5.318;2023-03-01T03:24:09;-1.10;99.90
18392;DHT22;9322;50.932;5.318;2023-03-01T03:26:34;-1.00;99.90
18392;DHT22;9322;50.932;5.318;2023-03-01T03:29:00;-1.00;99.90
18392;DHT22;9322;50.932;5.318;2023-03-01T03:31:27;-0.90;99.90
18392;DHT22;9322;50.932;5.318;2023-03-01T03:33:53;-0.90;99.90
18392;DHT22;9322;50.932;5.318;2023-03-01T03:36:21;-1.00;99.90
18392;DHT22;9322;50.932;5.318;2023-03-01T03:38:47;-0.90;99.90
18392;DHT22;9322;50.932;5.318;2023-03-01T03:41:14;-0.90;99.90
18392;DHT22;9322;50.932;5.318;2023-03-01T03:43:41;-0.90;99.90
18392;DHT22;9322;50.932;5.318;2023-03-01T03:46:09;-1.00;99.90
18392;DHT22;9322;50.932;5.318;2023-03-01T03:48:37;-0.90;99.90
18392;DHT22;9322;50.932;5.318;2023-03-01T03:51:03;-0.80;99.90
18392;DHT22;9322;50.932;5.318;2023-03-01T03:53:32;-0.90;99.90
18392;DHT22;9322;50.932;5.318;2023-03-01T03:55:58;-1.00;99.90
18392;DHT22;9322;50.932;5.318;2023-03-01T03:58:25;-1.00;99.90
18392;DHT22;9322;50.932;5.318;2023-03-01T04:00:56;-0.90;99.90
18392;DHT22;9322;50.932;5.318;2023-03-01T04:03:23;-0.90;99.90
18392;DHT22;9322;50.932;5.318;2023-03-01T04:05:49;-1.00;99.90
18392;DHT22;9322;50.932;5.318;2023-03-01T04:08:20;-0.90;99.90
18392;DHT22;9322;50.932;5.318;2023-03-01T04:10:49;-0.90;99.90
18392;DHT22;9322;50.932;5.318;2023-03-01T04:13:18;-0.90;99.90
18392;DHT22;9322;50.932;5.318;2023-03-01T04:15:49;-1.00;99.90
18392;DHT22;9322;50.932;5.318;2023-03-01T04:18:16;-1.00;99.90
18392;DHT22;9322;50.932;5.318;2023-03-01T04:20:42;-1.00;99.90
18392;DHT22;9322;50.932;5.318;2023-03-01T04:23:16;-1.00;99.90
18392;DHT22;9322;50.932;5.318;2023-03-01T04:25:56;-1.10;99.90
18392;DHT22;9322;50.932;5.318;2023-03-01T04:28:26;-1.20;99.90
18392;DHT22;9322;50.932;5.318;2023-03-01T04:30:53;-1.20;99.90
18392;DHT22;9322;50.932;5.318;2023-03-01T04:33:20;-1.10;99.90
18392;DHT22;9322;50.932;5.318;2023-03-01T04:35:45;-1.00;99.90
18392;DHT22;9322;50.932;5.318;2023-03-01T04:38:15;-1.00;99.90
18392;DHT22;9322;50.932;5.318;2023-03-01T04:40:41;-1.10;99.90
18392;DHT22;9322;50.932;5.318;2023-03-01T04:43:09;-1.10;99.90
18392;DHT22;9322;50.932;5.318;2023-03-01T04:45:35;-1.10;99.90
18392;DHT22;9322;50.932;5.318;2023-03-01T04:48:02;-1.10;99.90
18392;DHT22;9322;50.932;5.318;2023-03-01T04:50:28;-1.10;99.90
18392;DHT22;9322;50.932;5.318;2023-03-01T04:52:54;-1.10;99.90
18392;DHT22;9322;50.932;5.318;2023-03-01T04:55:19;-1.20;99.90
18392;DHT22;9322;50.932;5.318;2023-03-01T04:57:45;-1.30;99.90
18392;DHT22;9322;50.932;5.318;2023-03-01T05:00:12;-1.50;99.90
18392;DHT22;9322;50.932;5.318;2023-03-01T05:02:53;-1.60;99.90
18392;DHT22;9322;50.932;5.318;2023-03-01T05:05:21;-1.30;99.90
18392;DHT22;9322;50.932;5.318;2023-03-01T05:07:47;-1.40;99.90
18392;DHT22;9322;50.932;5.318;2023-03-01T05:10:13;-1.40;99.90
18392;DHT22;9322;50.932;5.318;2023-03-01T05:12:38;-1.40;99.90
18392;DHT22;9322;50.932;5.318;2023-03-01T05:15:05;-1.40;99.90
18392;DHT22;9322;50.932;5.318;2023-03-01T05:17:33;-1.40;99.90
18392;DHT22;9322;50.932;5.318;2023-03-01T05:19:59;-1.40;99.90
18392;DHT22;9322;50.932;5.318;2023-03-01T05:22:26;-1.40;99.90
18392;DHT22;9322;50.932;5.318;2023-03-01T05:24:52;-1.50;99.90
18392;DHT22;9322;50.932;5.318;2023-03-01T05:27:19;-1.50;99.90
18392;DHT22;9322;50.932;5.318;2023-03-01T05:29:47;-1.50;99.90
18392;DHT22;9322;50.932;5.318;2023-03-01T05:32:13;-1.50;99.90
18392;DHT22;9322;50.932;5.318;2023-03-01T05:34:41;-1.50;99.90
18392;DHT22;9322;50.932;5.318;2023-03-01T05:37:07;-1.40;99.90
18392;DHT22;9322;50.932;5.318;2023-03-01T05:39:36;-1.40;99.90
18392;DHT22;9322;50.932;5.318;2023-03-01T05:42:02;-1.50;99.90
18392;DHT22;9322;50.932;5.318;2023-03-01T05:44:28;-1.70;99.90
18392;DHT22;9322;50.932;5.318;2023-03-01T05:46:54;-1.60;99.90
18392;DHT22;9322;50.932;5.318;2023-03-01T05:49:21;-1.60;99.90
18392;DHT22;9322;50.932;5.318;2023-03-01T05:51:51;-1.30;99.90
18392;DHT22;9322;50.932;5.318;2023-03-01T05:54:18;-1.60;99.90
18392;DHT22;9322;50.932;5.318;2023-03-01T05:56:45;-1.80;99.90
18392;DHT22;9322;50.932;5.318;2023-03-01T05:59:11;-1.60;99.90
18392;DHT22;9322;50.932;5.318;2023-03-01T06:01:37;-1.70;99.90
18392;DHT22;9322;50.932;5.318;2023-03-01T06:04:03;-1.80;99.90
18392;DHT22;9322;50.932;5.318;2023-03-01T06:06:33;-1.70;99.90
18392;DHT22;9322;50.932;5.318;2023-03-01T06:08:58;-1.60;99.90
18392;DHT22;9322;50.932;5.318;2023-03-01T06:11:24;-1.70;99.90
18392;DHT22;9322;50.932;5.318;2023-03-01T06:13:50;-1.80;99.90
18392;DHT22;9322;50.932;5.318;2023-03-01T06:16:16;-1.70;99.90
18392;DHT22;9322;50.932;5.318;2023-03-01T06:18:41;-1.60;99.90
18392;DHT22;9322;50.932;5.318;2023-03-01T06:21:07;-1.80;99.90
18392;DHT22;9322;50.932;5.318;2023-03-01T06:23:34;-1.80;99.90
18392;DHT22;9322;50.932;5.318;2023-03-01T06:26:00;-1.70;99.90
18392;DHT22;9322;50.932;5.318;2023-03-01T06:28:30;-1.80;99.90
18392;DHT22;9322;50.932;5.318;2023-03-01T06:30:55;-1.70;99.90
18392;DHT22;9322;50.932;5.318;2023-03-01T06:33:21;-1.70;99.90
18392;DHT22;9322;50.932;5.318;2023-03-01T06:35:50;-1.60;99.90
18392;DHT22;9322;50.932;5.318;2023-03-01T06:38:15;-1.60;99.90
18392;DHT22;9322;50.932;5.318;2023-03-01T06:40:44;-1.50;99.90
18392;DHT22;9322;50.932;5.318;2023-03-01T06:43:09;-1.20;99.90
18392;DHT22;9322;50.932;5.318;2023-03-01T06:45:36;-0.80;99.90
18392;DHT22;9322;50.932;5.318;2023-03-01T06:48:07;-0.50;99.90
18392;DHT22;9322;50.932;5.318;2023-03-01T06:50:34;-0.20;1.40
18392;DHT22;9322;50.932;5.318;2023-03-01T06:53:00;0.00;1.40
18392;DHT22;9322;50.932;5.318;2023-03-01T06:55:26;0.30;1.40
18392;DHT22;9322;50.932;5.318;2023-03-01T06:57:59;0.60;1.40
18392;DHT22;9322;50.932;5.318;2023-03-01T07:00:25;1.00;1.40
18392;DHT22;9322;50.932;5.318;2023-03-01T07:02:52;1.30;1.40
18392;DHT22;9322;50.932;5.318;2023-03-01T07:05:18;1.70;1.40
18392;DHT22;9322;50.932;5.318;2023-03-01T07:07:44;2.10;1.40
18392;DHT22;9322;50.932;5.318;2023-03-01T07:10:10;2.50;1.40
18392;DHT22;9322;50.932;5.318;2023-03-01T07:12:36;2.80;1.40
18392;DHT22;9322;50.932;5.318;2023-03-01T07:15:02;3.00;1.40
18392;DHT22;9322;50.932;5.318;2023-03-01T07:17:28;3.50;1.40
18392;DHT22;9322;50.932;5.318;2023-03-01T07:19:54;3.50;1.40
18392;DHT22;9322;50.932;5.318;2023-03-01T07:22:20;3.80;1.40
18392;DHT22;9322;50.932;5.318;2023-03-01T07:24:45;3.90;1.40
18392;DHT22;9322;50.932;5.318;2023-03-01T07:27:11;4.10;1.40
18392;DHT22;9322;50.932;5.318;2023-03-01T07:29:37;4.70;1.40
18392;DHT22;9322;50.932;5.318;2023-03-01T07:32:04;5.10;1.40
18392;DHT22;9322;50.932;5.318;2023-03-01T07:34:29;5.20;1.40
18392;DHT22;9322;50.932;5.318;2023-03-01T07:36:55;5.30;1.40
18392;DHT22;9322;50.932;5.318;2023-03-01T07:39:21;5.80;1.40
18392;DHT22;9322;50.932;5.318;2023-03-01T07:41:49;6.20;1.40
18392;DHT22;9322;50.932;5.318;2023-03-01T07:44:14;6.50;1.40
18392;DHT22;9322;50.932;5.318;2023-03-01T07:46:42;6.80;1.40
18392;DHT22;9322;50.932;5.318;2023-03-01T07:49:08;7.20;1.40
18392;DHT22;9322;50.932;5.318;2023-03-01T07:51:34;6.80;1.40
18392;DHT22;9322;50.932;5.318;2023-03-01T07:54:00;6.20;1.40
18392;DHT22;9322;50.932;5.318;2023-03-01T07:56:25;6.80;1.40
18392;DHT22;9322;50.932;5.318;2023-03-01T07:58:51;7.00;1.40
18392;DHT22;9322;50.932;5.318;2023-03-01T08:01:19;7.60;1.40
18392;DHT22;9322;50.932;5.318;2023-03-01T08:03:45;8.20;1.40
18392;DHT22;9322;50.932;5.318;2023-03-01T08:06:12;8.10;1.40
18392;DHT22;9322;50.932;5.318;2023-03-01T08:08:38;8.00;1.40
18392;DHT22;9322;50.932;5.318;2023-03-01T08:11:06;8.00;1.40
18392;DHT22;9322;50.932;5.318;2023-03-01T08:13:33;8.30;1.40
18392;DHT22;9322;50.932;5.318;2023-03-01T08:16:07;9.20;1.40
18392;DHT22;9322;50.932;5.318;2023-03-01T08:18:33;9.20;1.40
18392;DHT22;9322;50.932;5.318;2023-03-01T08:21:04;9.30;1.40
18392;DHT22;9322;50.932;5.318;2023-03-01T08:23:30;9.60;1.40
18392;DHT22;9322;50.932;5.318;2023-03-01T08:26:03;10.50;1.40
18392;DHT22;9322;50.932;5.318;2023-03-01T08:28:29;10.60;1.40
18392;DHT22;9322;50.932;5.318;2023-03-01T08:30:55;10.00;1.40
18392;DHT22;9322;50.932;5.318;2023-03-01T08:33:20;9.40;1.40
18392;DHT22;9322;50.932;5.318;2023-03-01T08:35:46;9.50;1.40
18392;DHT22;9322;50.932;5.318;2023-03-01T08:38:12;9.60;1.40
18392;DHT22;9322;50.932;5.318;2023-03-01T08:40:37;10.10;1.40
18392;DHT22;9322;50.932;5.318;2023-03-01T08:43:03;10.50;1.40
18392;DHT22;9322;50.932;5.318;2023-03-01T08:45:28;10.40;1.40
18392;DHT22;9322;50.932;5.318;2023-03-01T08:47:54;10.30;1.40
18392;DHT22;9322;50.932;5.318;2023-03-01T08:50:20;10.20;1.40
18392;DHT22;9322;50.932;5.318;2023-03-01T08:52:46;10.70;1.40
18392;DHT22;9322;50.932;5.318;2023-03-01T08:55:11;10.70;1.40
18392;DHT22;9322;50.932;5.318;2023-03-01T08:57:37;11.10;1.40
18392;DHT22;9322;50.932;5.318;2023-03-01T09:00:03;10.80;1.40
18392;DHT22;9322;50.932;5.318;2023-03-01T09:02:33;11.80;1.40
18392;DHT22;9322;50.932;5.318;2023-03-01T09:04:59;11.30;1.40
18392;DHT22;9322;50.932;5.318;2023-03-01T09:07:26;11.70;1.40
18392;DHT22;9322;50.932;5.318;2023-03-01T09:09:53;12.20;1.40
18392;DHT22;9322;50.932;5.318;2023-03-01T09:12:19;13.10;1.40
18392;DHT22;9322;50.932;5.318;2023-03-01T09:14:45;11.10;1.40
18392;DHT22;9322;50.932;5.318;2023-03-01T09:17:11;9.80;1.40
18392;DHT22;9322;50.932;5.318;2023-03-01T09:19:36;10.40;1.40
18392;DHT22;9322;50.932;5.318;2023-03-01T09:22:03;11.30;1.40
18392;DHT22;9322;50.932;5.318;2023-03-01T09:24:29;12.00;1.40
18392;DHT22;9322;50.932;5.318;2023-03-01T09:26:56;11.90;1.40
18392;DHT22;9322;50.932;5.318;2023-03-01T09:29:22;12.50;1.40
18392;DHT22;9322;50.932;5.318;2023-03-01T09:31:48;12.10;1.40
18392;DHT22;9322;50.932;5.318;2023-03-01T09:34:14;12.40;1.40
18392;DHT22;9322;50.932;5.318;2023-03-01T09:36:41;12.40;1.40
18392;DHT22;9322;50.932;5.318;2023-03-01T09:39:07;12.60;1.40
18392;DHT22;9322;50.932;5.318;2023-03-01T09:46:46;14.00;1.40
18392;DHT22;9322;50.932;5.318;2023-03-01T09:49:21;14.20;1.40
18392;DHT22;9322;50.932;5.318;2023-03-01T09:51:55;13.80;1.40
18392;DHT22;9322;50.932;5.318;2023-03-01T09:54:22;13.10;1.40
18392;DHT22;9322;50.932;5.318;2023-03-01T10:10:47;12.60;1.40
18392;DHT22;9322;50.932;5.318;2023-03-01T10:13:26;12.60;1.40
18392;DHT22;9322;50.932;5.318;2023-03-01T10:15:57;13.20;1.40
18392;DHT22;9322;50.932;5.318;2023-03-01T10:18:27;14.10;1.40
18392;DHT22;9322;50.932;5.318;2023-03-01T10:21:02;14.30;1.40
18392;DHT22;9322;50.932;5.318;2023-03-01T10:23:32;12.80;1.40
18392;DHT22;9322;50.932;5.318;2023-03-01T10:31:25;12.90;1.40
18392;DHT22;9322;50.932;5.318;2023-03-01T10:34:02;13.50;1.40
18392;DHT22;9322;50.932;5.318;2023-03-01T10:36:33;13.20;1.40
18392;DHT22;9322;50.932;5.318;2023-03-01T10:38:59;12.50;1.40
18392;DHT22;9322;50.932;5.318;2023-03-01T10:41:29;12.80;1.40
18392;DHT22;9322;50.932;5.318;2023-03-01T10:43:58;13.00;1.40
18392;DHT22;9322;50.932;5.318;2023-03-01T10:46:31;13.90;1.40
18392;DHT22;9322;50.932;5.318;2023-03-01T10:51:46;13.80;1.40
18392;DHT22;9322;50.932;5.318;2023-03-01T10:54:25;13.60;1.40
18392;DHT22;9322;50.932;5.318;2023-03-01T10:57:05;13.50;1.40
18392;DHT22;9322;50.932;5.318;2023-03-01T11:05:13;14.00;1.40
18392;DHT22;9322;50.932;5.318;2023-03-01T11:08:07;13.20;1.40
18392;DHT22;9322;50.932;5.318;2023-03-01T11:10:36;12.60;1.40
18392;DHT22;9322;50.932;5.318;2023-03-01T11:13:15;12.60;1.40
18392;DHT22;9322;50.932;5.318;2023-03-01T11:15:42;13.70;1.40
18392;DHT22;9322;50.932;5.318;2023-03-01T11:18:22;14.90;1.40
18392;DHT22;9322;50.932;5.318;2023-03-01T11:20:49;15.50;1.40
18392;DHT22;9322;50.932;5.318;2023-03-01T11:23:17;15.70;1.40
18392;DHT22;9322;50.932;5.318;2023-03-01T11:25:53;16.10;1.40
18392;DHT22;9322;50.932;5.318;2023-03-01T11:28:20;15.90;1.40
18392;DHT22;9322;50.932;5.318;2023-03-01T11:31:02;15.20;1.40
18392;DHT22;9322;50.932;5.318;2023-03-01T11:33:53;14.70;1.40
18392;DHT22;9322;50.932;5.318;2023-03-01T11:36:35;13.90;1.40
18392;DHT22;9322;50.932;5.318;2023-03-01T11:39:13;13.60;1.40
18392;DHT22;9322;50.932;5.318;2023-03-01T11:41:41;13.90;1.40
18392;DHT22;9322;50.932;5.318;2023-03-01T11:44:21;14.80;1.40
18392;DHT22;9322;50.932;5.318;2023-03-01T11:47:09;15.40;1.40
18392;DHT22;9322;50.932;5.318;2023-03-01T11:49:45;16.60;1.40
18392;DHT22;9322;50.932;5.318;2023-03-01T12:09:00;13.10;1.40
18392;DHT22;9322;50.932;5.318;2023-03-01T12:42:21;12.40;1.40
18392;DHT22;9322;50.932;5.318;2023-03-01T12:50:59;10.40;1.40
18392;DHT22;9322;50.932;5.318;2023-03-01T12:53:40;9.70;1.40
18392;DHT22;9322;50.932;5.318;2023-03-01T12:56:09;9.20;1.40
18392;DHT22;9322;50.932;5.318;2023-03-01T13:09:44;8.20;1.40
18392;DHT22;9322;50.932;5.318;2023-03-01T13:15:32;8.30;1.40
18392;DHT22;9322;50.932;5.318;2023-03-01T13:26:12;8.50;1.40
18392;DHT22;9322;50.932;5.318;2023-03-01T13:34:03;7.60;1.40
18392;DHT22;9322;50.932;5.318;2023-03-01T13:39:31;7.70;1.40
18392;DHT22;9322;50.932;5.318;2023-03-01T13:42:25;7.70;1.40
18392;DHT22;9322;50.932;5.318;2023-03-01T13:44:49;7.80;1.40
18392;DHT22;9322;50.932;5.318;2023-03-01T13:47:18;7.30;1.40
18392;DHT22;9322;50.932;5.318;2023-03-01T13:49:57;7.40;1.40
18392;DHT22;9322;50.932;5.318;2023-03-01T13:52:40;7.50;1.40
18392;DHT22;9322;50.932;5.318;2023-03-01T13:55:32;7.20;1.40
18392;DHT22;9322;50.932;5.318;2023-03-01T13:58:03;7.40;1.40
18392;DHT22;9322;50.932;5.318;2023-03-01T14:00:35;7.40;1.40
18392;DHT22;9322;50.932;5.318;2023-03-01T14:05:32;7.30;1.40
18392;DHT22;9322;50.932;5.318;2023-03-01T14:07:57;7.20;1.40
18392;DHT22;9322;50.932;5.318;2023-03-01T14:10:28;7.10;1.40
18392;DHT22;9322;50.932;5.318;2023-03-01T14:13:08;6.90;1.40
18392;DHT22;9322;50.932;5.318;2023-03-01T14:15:43;6.90;1.40
18392;DHT22;9322;50.932;5.318;2023-03-01T14:18:23;7.40;1.40
18392;DHT22;9322;50.932;5.318;2023-03-01T14:20:51;7.30;1.40
18392;DHT22;9322;50.932;5.318;2023-03-01T14:23:20;7.10;1.40
18392;DHT22;9322;50.932;5.318;2023-03-01T14:25:49;7.10;1.40
18392;DHT22;9322;50.932;5.318;2023-03-01T14:28:23;7.30;1.40
18392;DHT22;9322;50.932;5.318;2023-03-01T14:30:53;7.30;1.40
18392;DHT22;9322;50.932;5.318;2023-03-01T14:36:00;7.40;1.40
18392;DHT22;9322;50.932;5.318;2023-03-01T14:38:38;7.50;1.40
18392;DHT22;9322;50.932;5.318;2023-03-01T14:41:08;7.60;1.40
18392;DHT22;9322;50.932;5.318;2023-03-01T14:43:35;7.30;1.40
18392;DHT22;9322;50.932;5.318;2023-03-01T14:46:01;7.50;1.40
18392;DHT22;9322;50.932;5.318;2023-03-01T14:48:28;7.40;1.40
18392;DHT22;9322;50.932;5.318;2023-03-01T14:50:55;7.40;1.40
18392;DHT22;9322;50.932;5.318;2023-03-01T14:53:26;7.50;1.40
18392;DHT22;9322;50.932;5.318;2023-03-01T14:56:00;7.40;1.40
18392;DHT22;9322;50.932;5.318;2023-03-01T14:58:32;7.60;1.40
18392;DHT22;9322;50.932;5.318;2023-03-01T15:01:03;7.20;1.40
18392;DHT22;9322;50.932;5.318;2023-03-01T15:03:44;7.00;1.40
18392;DHT22;9322;50.932;5.318;2023-03-01T15:06:15;7.10;1.40
18392;DHT22;9322;50.932;5.318;2023-03-01T15:08:44;7.30;1.40
18392;DHT22;9322;50.932;5.318;2023-03-01T15:11:29;7.40;1.40
18392;DHT22;9322;50.932;5.318;2023-03-01T15:13:56;7.40;1.40
18392;DHT22;9322;50.932;5.318;2023-03-01T15:18:53;7.20;1.40
18392;DHT22;9322;50.932;5.318;2023-03-01T15:21:23;7.00;1.40
18392;DHT22;9322;50.932;5.318;2023-03-01T15:27:12;7.20;1.40
18392;DHT22;9322;50.932;5.318;2023-03-01T15:29:33;7.10;1.40
18392;DHT22;9322;50.932;5.318;2023-03-01T15:32:29;7.10;1.40
18392;DHT22;9322;50.932;5.318;2023-03-01T15:34:57;7.10;1.40
18392;DHT22;9322;50.932;5.318;2023-03-01T15:37:46;6.90;1.40
18392;DHT22;9322;50.932;5.318;2023-03-01T15:40:27;7.10;1.40
18392;DHT22;9322;50.932;5.318;2023-03-01T15:43:06;7.00;1.40
18392;DHT22;9322;50.932;5.318;2023-03-01T15:45:33;7.00;1.40
18392;DHT22;9322;50.932;5.318;2023-03-01T15:48:19;7.10;1.40
18392;DHT22;9322;50.932;5.318;2023-03-01T15:50:58;7.00;1.40
18392;DHT22;9322;50.932;5.318;2023-03-01T15:53:24;7.00;1.40
18392;DHT22;9322;50.932;5.318;2023-03-01T15:55:52;7.00;1.40
18392;DHT22;9322;50.932;5.318;2023-03-01T15:58:22;7.00;1.40
18392;DHT22;9322;50.932;5.318;2023-03-01T16:00:49;6.90;1.40
18392;DHT22;9322;50.932;5.318;2023-03-01T16:03:21;7.00;1.40
18392;DHT22;9322;50.932;5.318;2023-03-01T16:05:49;7.10;1.40
18392;DHT22;9322;50.932;5.318;2023-03-01T16:08:16;7.00;1.40
18392;DHT22;9322;50.932;5.318;2023-03-01T16:10:42;7.10;1.40
18392;DHT22;9322;50.932;5.318;2023-03-01T16:13:10;7.10;1.40
18392;DHT22;9322;50.932;5.318;2023-03-01T16:15:35;7.10;1.40
18392;DHT22;9322;50.932;5.318;2023-03-01T16:18:02;7.10;1.40
18392;DHT22;9322;50.932;5.318;2023-03-01T16:20:29;7.00;1.40
18392;DHT22;9322;50.932;5.318;2023-03-01T16:22:57;6.90;1.40
18392;DHT22;9322;50.932;5.318;2023-03-01T16:25:23;7.00;1.40
18392;DHT22;9322;50.932;5.318;2023-03-01T16:27:50;7.10;1.40
18392;DHT22;9322;50.932;5.318;2023-03-01T16:30:19;7.00;1.40
18392;DHT22;9322;50.932;5.318;2023-03-01T16:32:46;6.90;1.40
18392;DHT22;9322;50.932;5.318;2023-03-01T16:35:13;6.80;1.40
18392;DHT22;9322;50.932;5.318;2023-03-01T16:37:52;6.90;1.40
18392;DHT22;9322;50.932;5.318;2023-03-01T16:40:21;6.70;1.40
18392;DHT22;9322;50.932;5.318;2023-03-01T16:42:50;6.80;1.40
18392;DHT22;9322;50.932;5.318;2023-03-01T16:45:17;6.70;1.40
18392;DHT22;9322;50.932;5.318;2023-03-01T16:47:42;6.70;1.40
18392;DHT22;9322;50.932;5.318;2023-03-01T16:50:09;6.70;1.40
18392;DHT22;9322;50.932;5.318;2023-03-01T16:52:35;6.60;1.40
18392;DHT22;9322;50.932;5.318;2023-03-01T16:55:03;6.50;1.40
18392;DHT22;9322;50.932;5.318;2023-03-01T16:57:29;6.60;1.40
18392;DHT22;9322;50.932;5.318;2023-03-01T16:59:55;6.60;1.40
18392;DHT22;9322;50.932;5.318;2023-03-01T17:02:21;6.50;1.40
18392;DHT22;9322;50.932;5.318;2023-03-01T17:04:54;6.60;1.40
18392;DHT22;9322;50.932;5.318;2023-03-01T17:07:20;6.60;1.40
18392;DHT22;9322;50.932;5.318;2023-03-01T17:09:46;6.40;1.40
18392;DHT22;9322;50.932;5.318;2023-03-01T17:12:13;6.40;1.40
18392;DHT22;9322;50.932;5.318;2023-03-01T17:14:39;6.50;1.40
18392;DHT22;9322;50.932;5.318;2023-03-01T17:17:07;6.30;1.40
18392;DHT22;9322;50.932;5.318;2023-03-01T17:19:33;6.20;1.40
18392;DHT22;9322;50.932;5.318;2023-03-01T17:22:02;6.30;1.40
18392;DHT22;9322;50.932;5.318;2023-03-01T17:24:32;6.10;1.40
18392;DHT22;9322;50.932;5.318;2023-03-01T17:26:58;6.10;1.40
18392;DHT22;9322;50.932;5.318;2023-03-01T17:29:24;6.00;1.40
18392;DHT22;9322;50.932;5.318;2023-03-01T17:31:49;6.00;1.40
18392;DHT22;9322;50.932;5.318;2023-03-01T17:34:15;5.90;1.40
18392;DHT22;9322;50.932;5.318;2023-03-01T17:36:41;5.80;1.40
18392;DHT22;9322;50.932;5.318;2023-03-01T17:39:10;5.90;1.40
18392;DHT22;9322;50.932;5.318;2023-03-01T17:41:36;5.70;1.40
18392;DHT22;9322;50.932;5.318;2023-03-01T17:44:01;5.60;1.40
18392;DHT22;9322;50.932;5.318;2023-03-01T17:46:27;5.60;1.40
18392;DHT22;9322;50.932;5.318;2023-03-01T17:48:53;5.60;1.40
18392;DHT22;9322;50.932;5.318;2023-03-01T17:51:19;5.50;1.40
18392;DHT22;9322;50.932;5.318;2023-03-01T17:53:44;5.50;1.40
18392;DHT22;9322;50.932;5.318;2023-03-01T17:56:10;5.40;1.40
18392;DHT22;9322;50.932;5.318;2023-03-01T17:58:36;5.40;1.40
18392;DHT22;9322;50.932;5.318;2023-03-01T18:01:21;5.60;1.40
18392;DHT22;9322;50.932;5.318;2023-03-01T18:03:50;5.40;1.40
18392;DHT22;9322;50.932;5.318;2023-03-01T18:06:19;5.40;1.40
18392;DHT22;9322;50.932;5.318;2023-03-01T18:08:45;5.40;1.40
18392;DHT22;9322;50.932;5.318;2023-03-01T18:11:14;5.30;1.40
18392;DHT22;9322;50.932;5.318;2023-03-01T18:13:40;5.30;1.40
18392;DHT22;9322;50.932;5.318;2023-03-01T18:16:11;5.20;1.40
18392;DHT22;9322;50.932;5.318;2023-03-01T18:18:38;5.20;1.40
18392;DHT22;9322;50.932;5.318;2023-03-01T18:21:04;5.10;1.40
18392;DHT22;9322;50.932;5.318;2023-03-01T18:23:31;5.00;1.40
18392;DHT22;9322;50.932;5.318;2023-03-01T18:26:02;4.90;1.40
18392;DHT22;9322;50.932;5.318;2023-03-01T18:28:29;4.80;1.40
18392;DHT22;9322;50.932;5.318;2023-03-01T18:31:00;4.80;1.40
18392;DHT22;9322;50.932;5.318;2023-03-01T18:33:27;4.80;1.40
18392;DHT22;9322;50.932;5.318;2023-03-01T18:35:53;4.80;1.40